sensor_id;sensor_type;location;lat;lon;timestamp;pressure;altitude;pressure_sealevel;temperature;humidity
80759;BME280;70150;45.582;10.178;2023-06-05T00:01:38;99957.44;;;18.90;71.48
80759;BME280;70150;45.582;10.178;2023-06-05T00:04:04;99944.03;;;18.72;71.60
80759;BME280;70150;45.582;10.178;2023-06-05T00:06:30;99947.50;;;18.76;71.49
80759;BME280;70150;45.582;10.178;2023-06-05T00:08:56;99949.34;;;18.83;71.15
80759;BME280;70150;45.582;10.178;2023-06-05T00:11:23;99949.41;;;18.79;72.19
80759;BME280;70150;45.582;10.178;2023-06-05T00:13:49;99953.84;;;18.63;72.74
80759;BME280;70150;45.582;10.178;2023-06-05T00:16:16;99946.59;;;18.86;71.83
80759;BME280;70150;45.582;10.178;2023-06-05T00:18:44;99949.75;;;18.81;72.18
80759;BME280;70150;45.582;10.178;2023-06-05T00:21:12;99956.38;;;18.80;72.28
80759;BME280;70150;45.582;10.178;2023-06-05T00:23:38;99957.59;;;18.35;73.05
80759;BME280;70150;45.582;10.178;2023-06-05T00:26:03;99949.41;;;18.79;72.59
80759;BME280;70150;45.582;10.178;2023-06-05T00:28:29;99949.03;;;18.77;72.50
80759;BME280;70150;45.582;10.178;2023-06-05T00:30:57;99947.69;;;18.92;72.14
80759;BME280;70150;45.582;10.178;2023-06-05T00:33:23;99947.97;;;19.01;72.30
80759;BME280;70150;45.582;10.178;2023-06-05T00:35:48;99948.63;;;19.12;71.20
80759;BME280;70150;45.582;10.178;2023-06-05T00:38:14;99947.00;;;19.18;71.13
80759;BME280;70150;45.582;10.178;2023-06-05T00:40:40;99940.84;;;19.14;72.10
80759;BME280;70150;45.582;10.178;2023-06-05T00:43:05;99940.84;;;19.14;71.28
80759;BME280;70150;45.582;10.178;2023-06-05T00:45:31;99941.09;;;19.23;71.25
80759;BME280;70150;45.582;10.178;2023-06-05T00:47:59;99934.47;;;18.61;72.22
80759;BME280;70150;45.582;10.178;2023-06-05T00:50:26;99930.47;;;18.28;73.85
80759;BME280;70150;45.582;10.178;2023-06-05T00:52:52;99938.47;;;18.02;74.99
80759;BME280;70150;45.582;10.178;2023-06-05T00:55:18;99937.66;;;18.05;74.72
80759;BME280;70150;45.582;10.178;2023-06-05T00:57:44;99926.41;;;18.50;73.37
80759;BME280;70150;45.582;10.178;2023-06-05T01:00:11;99930.66;;;18.51;73.58
80759;BME280;70150;45.582;10.178;2023-06-05T01:02:38;99930.13;;;18.67;72.84
80759;BME280;70150;45.582;10.178;2023-06-05T01:05:05;99934.19;;;18.48;73.02
80759;BME280;70150;45.582;10.178;2023-06-05T01:07:32;99927.03;;;18.65;72.04
80759;BME280;70150;45.582;10.178;2023-06-05T01:10:02;99932.06;;;18.66;72.37
80759;BME280;70150;45.582;10.178;2023-06-05T01:15:06;99929.06;;;18.91;72.57
80759;BME280;70150;45.582;10.178;2023-06-05T01:17:33;99924.81;;;18.56;73.16
80759;BME280;70150;45.582;10.178;2023-06-05T01:20:00;99924.66;;;18.70;72.69
80759;BME280;70150;45.582;10.178;2023-06-05T01:22:29;99921.75;;;18.51;73.53
80759;BME280;70150;45.582;10.178;2023-06-05T01:24:55;99926.59;;;18.70;72.48
80759;BME280;70150;45.582;10.178;2023-06-05T01:27:30;99928.59;;;18.66;72.54
80759;BME280;70150;45.582;10.178;2023-06-05T01:32:39;99932.53;;;18.58;73.69
80759;BME280;70150;45.582;10.178;2023-06-05T01:35:11;99935.06;;;18.38;73.74
80759;BME280;70150;45.582;10.178;2023-06-05T01:37:43;99934.56;;;18.06;73.86
80759;BME280;70150;45.582;10.178;2023-06-05T01:40:15;99930.22;;;18.16;74.54
80759;BME280;70150;45.582;10.178;2023-06-05T01:42:42;99935.25;;;18.14;75.07
80759;BME280;70150;45.582;10.178;2023-06-05T01:45:08;99928.69;;;18.11;74.66
80759;BME280;70150;45.582;10.178;2023-06-05T01:47:36;99930.91;;;18.23;74.18
80759;BME280;70150;45.582;10.178;2023-06-05T01:50:03;99929.09;;;18.10;74.23
80759;BME280;70150;45.582;10.178;2023-06-05T01:52:29;99931.75;;;18.13;74.68
80759;BME280;70150;45.582;10.178;2023-06-05T01:54:55;99931.66;;;18.27;73.44
80759;BME280;70150;45.582;10.178;2023-06-05T01:57:27;99927.34;;;18.30;73.58
80759;BME280;70150;45.582;10.178;2023-06-05T01:59:53;99934.78;;;18.22;73.89
80759;BME280;70150;45.582;10.178;2023-06-05T02:02:19;99932.53;;;18.17;73.31
80759;BME280;70150;45.582;10.178;2023-06-05T02:04:48;99928.03;;;18.44;73.53
80759;BME280;70150;45.582;10.178;2023-06-05T02:07:14;99928.88;;;18.34;73.10
80759;BME280;70150;45.582;10.178;2023-06-05T02:09:41;99937.38;;;18.43;73.48
80759;BME280;70150;45.582;10.178;2023-06-05T02:12:06;99926.03;;;18.48;73.07
80759;BME280;70150;45.582;10.178;2023-06-05T02:14:33;99932.81;;;18.70;72.36
80759;BME280;70150;45.582;10.178;2023-06-05T02:17:03;99939.28;;;18.80;72.49
80759;BME280;70150;45.582;10.178;2023-06-05T02:19:32;99939.66;;;18.82;71.27
80759;BME280;70150;45.582;10.178;2023-06-05T02:21:58;99935.44;;;18.77;71.47
80759;BME280;70150;45.582;10.178;2023-06-05T02:24:23;99942.28;;;18.89;71.98
80759;BME280;70150;45.582;10.178;2023-06-05T02:26:50;99936.53;;;18.83;71.34
80759;BME280;70150;45.582;10.178;2023-06-05T02:29:16;99936.66;;;19.06;70.92
80759;BME280;70150;45.582;10.178;2023-06-05T02:31:42;99939.28;;;18.80;71.66
80759;BME280;70150;45.582;10.178;2023-06-05T02:34:08;99938.47;;;18.02;73.74
80759;BME280;70150;45.582;10.178;2023-06-05T02:36:34;99937.38;;;18.36;72.82
80759;BME280;70150;45.582;10.178;2023-06-05T02:39:01;99929.09;;;18.54;72.41
80759;BME280;70150;45.582;10.178;2023-06-05T02:41:27;99938.00;;;18.54;71.65
80759;BME280;70150;45.582;10.178;2023-06-05T02:43:53;99929.72;;;18.28;72.86
80759;BME280;70150;45.582;10.178;2023-06-05T02:46:20;99936.28;;;18.30;74.22
80759;BME280;70150;45.582;10.178;2023-06-05T02:48:46;99941.19;;;17.98;74.66
80759;BME280;70150;45.582;10.178;2023-06-05T02:51:12;99933.16;;;18.32;73.38
80759;BME280;70150;45.582;10.178;2023-06-05T02:53:40;99937.38;;;18.40;73.71
80759;BME280;70150;45.582;10.178;2023-06-05T02:56:06;99930.03;;;17.89;77.39
80759;BME280;70150;45.582;10.178;2023-06-05T02:58:32;99924.59;;;18.33;76.14
80759;BME280;70150;45.582;10.178;2023-06-05T03:00:59;99919.09;;;18.44;73.30
80759;BME280;70150;45.582;10.178;2023-06-05T03:03:30;99918.19;;;18.57;72.85
80759;BME280;70150;45.582;10.178;2023-06-05T03:06:00;99924.00;;;18.15;73.63
80759;BME280;70150;45.582;10.178;2023-06-05T03:08:31;99921.28;;;18.15;75.04
80759;BME280;70150;45.582;10.178;2023-06-05T03:10:57;99925.00;;;18.32;74.06
80759;BME280;70150;45.582;10.178;2023-06-05T03:13:25;99915.88;;;18.56;73.55
80759;BME280;70150;45.582;10.178;2023-06-05T03:15:51;99914.88;;;18.39;73.42
80759;BME280;70150;45.582;10.178;2023-06-05T03:18:19;99916.56;;;18.63;73.66
80759;BME280;70150;45.582;10.178;2023-06-05T03:20:48;99915.34;;;18.68;73.27
80759;BME280;70150;45.582;10.178;2023-06-05T03:23:19;99915.22;;;17.97;75.38
80759;BME280;70150;45.582;10.178;2023-06-05T03:25:44;99918.44;;;17.85;76.95
80759;BME280;70150;45.582;10.178;2023-06-05T03:28:10;99916.38;;;17.99;75.33
80759;BME280;70150;45.582;10.178;2023-06-05T03:30:35;99919.16;;;18.37;74.29
80759;BME280;70150;45.582;10.178;2023-06-05T03:33:01;99916.22;;;18.61;73.95
80759;BME280;70150;45.582;10.178;2023-06-05T03:35:26;99912.31;;;18.62;74.28
80759;BME280;70150;45.582;10.178;2023-06-05T03:37:53;99918.03;;;18.71;74.90
80759;BME280;70150;45.582;10.178;2023-06-05T03:40:19;99912.56;;;18.75;72.57
80759;BME280;70150;45.582;10.178;2023-06-05T03:42:44;99916.13;;;17.83;76.57
80759;BME280;70150;45.582;10.178;2023-06-05T03:45:12;99918.09;;;18.24;75.48
80759;BME280;70150;45.582;10.178;2023-06-05T03:47:41;99921.97;;;18.26;74.95
80759;BME280;70150;45.582;10.178;2023-06-05T03:50:10;99923.00;;;17.95;75.74
80759;BME280;70150;45.582;10.178;2023-06-05T03:52:35;99925.56;;;17.65;77.17
80759;BME280;70150;45.582;10.178;2023-06-05T03:55:06;99915.88;;;17.64;77.46
80759;BME280;70150;45.582;10.178;2023-06-05T03:57:33;99919.16;;;17.89;75.81
80759;BME280;70150;45.582;10.178;2023-06-05T03:59:59;99915.16;;;18.04;76.47
80759;BME280;70150;45.582;10.178;2023-06-05T04:02:25;99920.25;;;18.02;76.10
80759;BME280;70150;45.582;10.178;2023-06-05T04:04:50;99915.84;;;18.19;75.47
80759;BME280;70150;45.582;10.178;2023-06-05T04:07:17;99924.69;;;18.26;75.62
80759;BME280;70150;45.582;10.178;2023-06-05T04:09:42;99913.34;;;18.38;74.47
80759;BME280;70150;45.582;10.178;2023-06-05T04:12:08;99927.25;;;18.44;74.61
80759;BME280;70150;45.582;10.178;2023-06-05T04:14:36;99927.72;;;18.39;74.37
80759;BME280;70150;45.582;10.178;2023-06-05T04:17:02;99931.50;;;18.01;76.72
80759;BME280;70150;45.582;10.178;2023-06-05T04:19:28;99918.91;;;18.21;75.28
80759;BME280;70150;45.582;10.178;2023-06-05T04:21:54;99919.31;;;18.19;75.53
80759;BME280;70150;45.582;10.178;2023-06-05T04:24:19;99920.00;;;18.27;75.29
80759;BME280;70150;45.582;10.178;2023-06-05T04:26:45;99917.16;;;18.00;75.79
80759;BME280;70150;45.582;10.178;2023-06-05T04:29:13;99915.47;;;18.13;75.48
80759;BME280;70150;45.582;10.178;2023-06-05T04:31:43;99919.03;;;18.07;76.01
80759;BME280;70150;45.582;10.178;2023-06-05T04:34:08;99914.25;;;18.21;75.61
80759;BME280;70150;45.582;10.178;2023-06-05T04:36:34;99917.25;;;18.37;75.90
80759;BME280;70150;45.582;10.178;2023-06-05T04:39:00;99908.72;;;18.32;75.53
80759;BME280;70150;45.582;10.178;2023-06-05T04:41:28;99915.66;;;18.40;75.66
80759;BME280;70150;45.582;10.178;2023-06-05T04:43:55;99911.44;;;18.32;75.95
80759;BME280;70150;45.582;10.178;2023-06-05T04:46:22;99911.69;;;18.48;75.35
80759;BME280;70150;45.582;10.178;2023-06-05T04:48:48;99910.09;;;18.54;74.80
80759;BME280;70150;45.582;10.178;2023-06-05T04:51:14;99912.44;;;18.52;74.30
80759;BME280;70150;45.582;10.178;2023-06-05T04:53:39;99906.16;;;18.58;74.57
80759;BME280;70150;45.582;10.178;2023-06-05T04:56:07;99906.91;;;18.59;74.63
80759;BME280;70150;45.582;10.178;2023-06-05T04:58:32;99906.28;;;18.44;75.16
80759;BME280;70150;45.582;10.178;2023-06-05T05:00:58;99902.56;;;17.83;77.43
80759;BME280;70150;45.582;10.178;2023-06-05T05:03:31;99911.78;;;17.93;76.94
80759;BME280;70150;45.582;10.178;2023-06-05T05:05:57;99910.50;;;18.08;76.20
80759;BME280;70150;45.582;10.178;2023-06-05T05:08:22;99917.88;;;18.04;75.89
80759;BME280;70150;45.582;10.178;2023-06-05T05:10:48;99922.34;;;17.84;76.70
80759;BME280;70150;45.582;10.178;2023-06-05T05:13:14;99911.78;;;17.93;77.48
80759;BME280;70150;45.582;10.178;2023-06-05T05:15:39;99922.91;;;17.58;79.47
80759;BME280;70150;45.582;10.178;2023-06-05T05:18:05;99927.63;;;17.43;78.53
80759;BME280;70150;45.582;10.178;2023-06-05T05:20:33;99930.44;;;17.87;77.88
80759;BME280;70150;45.582;10.178;2023-06-05T05:22:59;99923.00;;;17.95;77.82
80759;BME280;70150;45.582;10.178;2023-06-05T05:25:25;99924.94;;;18.42;75.85
80759;BME280;70150;45.582;10.178;2023-06-05T05:27:54;99928.63;;;18.62;76.15
80759;BME280;70150;45.582;10.178;2023-06-05T05:30:22;99933.84;;;18.80;76.65
80759;BME280;70150;45.582;10.178;2023-06-05T05:32:47;99934.19;;;18.85;77.16
80759;BME280;70150;45.582;10.178;2023-06-05T05:35:13;99944.59;;;18.90;76.32
80759;BME280;70150;45.582;10.178;2023-06-05T05:37:38;99934.88;;;18.93;76.11
80759;BME280;70150;45.582;10.178;2023-06-05T05:40:05;99947.44;;;19.13;75.04
80759;BME280;70150;45.582;10.178;2023-06-05T05:42:32;99943.38;;;19.28;73.59
80759;BME280;70150;45.582;10.178;2023-06-05T05:44:57;99947.72;;;19.22;74.65
80759;BME280;70150;45.582;10.178;2023-06-05T05:47:25;99955.03;;;19.29;73.95
80759;BME280;70150;45.582;10.178;2023-06-05T05:49:51;99950.38;;;19.29;74.84
80759;BME280;70150;45.582;10.178;2023-06-05T05:52:16;99953.56;;;19.21;74.71
80759;BME280;70150;45.582;10.178;2023-06-05T05:54:45;99946.28;;;19.14;73.83
80759;BME280;70150;45.582;10.178;2023-06-05T05:57:11;99954.47;;;19.11;74.71
80759;BME280;70150;45.582;10.178;2023-06-05T05:59:37;99957.31;;;19.00;75.66
80759;BME280;70150;45.582;10.178;2023-06-05T06:02:03;99954.22;;;18.98;75.11
80759;BME280;70150;45.582;10.178;2023-06-05T06:04:34;99948.38;;;18.66;74.85
80759;BME280;70150;45.582;10.178;2023-06-05T06:07:00;99947.50;;;18.76;75.15
80759;BME280;70150;45.582;10.178;2023-06-05T06:09:26;99958.28;;;18.83;75.91
80759;BME280;70150;45.582;10.178;2023-06-05T06:11:52;99957.44;;;18.90;75.35
80759;BME280;70150;45.582;10.178;2023-06-05T06:14:22;99957.91;;;19.15;74.14
80759;BME280;70150;45.582;10.178;2023-06-05T06:16:48;99956.63;;;18.93;75.54
80759;BME280;70150;45.582;10.178;2023-06-05T06:19:15;99958.56;;;18.92;76.10
80759;BME280;70150;45.582;10.178;2023-06-05T06:21:41;99954.88;;;18.76;76.59
80759;BME280;70150;45.582;10.178;2023-06-05T06:24:08;99956.34;;;18.84;76.00
80759;BME280;70150;45.582;10.178;2023-06-05T06:26:37;99961.72;;;18.87;76.00
80759;BME280;70150;45.582;10.178;2023-06-05T06:29:04;99967.28;;;19.10;75.88
80759;BME280;70150;45.582;10.178;2023-06-05T06:31:32;99963.97;;;18.96;75.70
80759;BME280;70150;45.582;10.178;2023-06-05T06:33:57;99961.72;;;18.87;76.23
80759;BME280;70150;45.582;10.178;2023-06-05T06:36:24;99961.44;;;18.78;76.23
80759;BME280;70150;45.582;10.178;2023-06-05T06:38:51;99967.78;;;19.02;76.93
80759;BME280;70150;45.582;10.178;2023-06-05T06:41:17;99970.78;;;19.11;76.14
80759;BME280;70150;45.582;10.178;2023-06-05T06:43:42;99970.00;;;19.10;75.19
80759;BME280;70150;45.582;10.178;2023-06-05T06:46:08;99971.38;;;19.29;75.18
80759;BME280;70150;45.582;10.178;2023-06-05T06:48:33;99972.75;;;19.40;74.85
80759;BME280;70150;45.582;10.178;2023-06-05T06:51:02;99972.69;;;19.47;74.88
80759;BME280;70150;45.582;10.178;2023-06-05T06:53:29;99978.97;;;19.41;75.29
80759;BME280;70150;45.582;10.178;2023-06-05T06:55:54;99971.97;;;19.70;74.00
80759;BME280;70150;45.582;10.178;2023-06-05T06:58:20;99978.53;;;19.73;73.91
80759;BME280;70150;45.582;10.178;2023-06-05T07:00:46;99974.28;;;19.72;72.48
80759;BME280;70150;45.582;10.178;2023-06-05T07:03:12;99981.94;;;19.53;73.69
80759;BME280;70150;45.582;10.178;2023-06-05T07:05:38;99981.16;;;19.80;73.37
80759;BME280;70150;45.582;10.178;2023-06-05T07:08:03;99984.44;;;19.94;73.50
80759;BME280;70150;45.582;10.178;2023-06-05T07:10:29;99987.53;;;19.96;72.81
80759;BME280;70150;45.582;10.178;2023-06-05T07:12:55;99985.53;;;20.00;73.10
80759;BME280;70150;45.582;10.178;2023-06-05T07:15:21;99991.50;;;19.92;72.24
80759;BME280;70150;45.582;10.178;2023-06-05T07:17:46;99993.84;;;19.90;72.28
80759;BME280;70150;45.582;10.178;2023-06-05T07:20:12;99997.19;;;20.01;72.62
80759;BME280;70150;45.582;10.178;2023-06-05T07:22:43;99989.72;;;20.05;73.12
80759;BME280;70150;45.582;10.178;2023-06-05T07:25:12;99991.59;;;20.11;72.45
80759;BME280;70150;45.582;10.178;2023-06-05T07:27:39;99988.22;;;20.04;71.94
80759;BME280;70150;45.582;10.178;2023-06-05T07:30:06;99991.47;;;19.38;74.14
80759;BME280;70150;45.582;10.178;2023-06-05T07:32:35;99984.03;;;19.05;75.74
80759;BME280;70150;45.582;10.178;2023-06-05T07:35:01;99989.28;;;18.89;75.57
80759;BME280;70150;45.582;10.178;2023-06-05T07:37:27;99985.56;;;19.43;76.12
80759;BME280;70150;45.582;10.178;2023-06-05T07:39:53;99993.97;;;19.52;75.41
80759;BME280;70150;45.582;10.178;2023-06-05T07:42:19;99995.25;;;19.75;74.40
80759;BME280;70150;45.582;10.178;2023-06-05T07:44:45;99999.69;;;19.92;72.98
80759;BME280;70150;45.582;10.178;2023-06-05T07:47:10;99997.72;;;20.19;72.70
80759;BME280;70150;45.582;10.178;2023-06-05T07:49:38;99998.56;;;20.12;71.04
80759;BME280;70150;45.582;10.178;2023-06-05T07:52:04;99995.53;;;20.33;71.55
80759;BME280;70150;45.582;10.178;2023-06-05T07:54:29;99992.25;;;20.42;72.88
80759;BME280;70150;45.582;10.178;2023-06-05T07:56:55;99995.56;;;20.30;71.05
80759;BME280;70150;45.582;10.178;2023-06-05T07:59:22;99994.66;;;20.40;71.81
80759;BME280;70150;45.582;10.178;2023-06-05T08:01:53;99999.78;;;20.57;72.81
80759;BME280;70150;45.582;10.178;2023-06-05T08:04:20;99992.19;;;20.22;71.56
80759;BME280;70150;45.582;10.178;2023-06-05T08:06:51;99994.25;;;20.15;72.76
80759;BME280;70150;45.582;10.178;2023-06-05T08:09:19;99997.00;;;20.38;73.48
80759;BME280;70150;45.582;10.178;2023-06-05T08:11:45;99995.25;;;20.28;72.12
80759;BME280;70150;45.582;10.178;2023-06-05T08:14:10;100003.06;;;20.26;71.23
80759;BME280;70150;45.582;10.178;2023-06-05T08:16:36;99996.34;;;20.53;70.64
80759;BME280;70150;45.582;10.178;2023-06-05T08:19:02;100008.28;;;20.63;72.51
80759;BME280;70150;45.582;10.178;2023-06-05T08:21:28;100003.31;;;20.77;70.14
80759;BME280;70150;45.582;10.178;2023-06-05T08:23:54;100001.50;;;20.90;69.12
80759;BME280;70150;45.582;10.178;2023-06-05T08:26:20;99995.03;;;21.04;69.96
80759;BME280;70150;45.582;10.178;2023-06-05T08:28:47;99991.38;;;20.91;69.43
80759;BME280;70150;45.582;10.178;2023-06-05T08:31:12;99997.09;;;21.00;70.60
80759;BME280;70150;45.582;10.178;2023-06-05T08:33:38;100003.66;;;21.02;70.08
80759;BME280;70150;45.582;10.178;2023-06-05T08:36:06;100004.44;;;20.80;69.92
80759;BME280;70150;45.582;10.178;2023-06-05T08:38:33;99991.31;;;20.94;69.58
80759;BME280;70150;45.582;10.178;2023-06-05T08:41:01;99998.50;;;20.85;69.22
80759;BME280;70150;45.582;10.178;2023-06-05T08:43:28;99998.38;;;20.92;69.12
80759;BME280;70150;45.582;10.178;2023-06-05T08:45:55;99999.19;;;20.89;70.20
80759;BME280;70150;45.582;10.178;2023-06-05T08:48:24;99997.56;;;20.95;69.60
80759;BME280;70150;45.582;10.178;2023-06-05T08:50:51;99999.19;;;20.89;70.53
80759;BME280;70150;45.582;10.178;2023-06-05T08:53:17;99996.06;;;20.90;69.05
80759;BME280;70150;45.582;10.178;2023-06-05T08:55:45;100000.22;;;20.98;67.95
80759;BME280;70150;45.582;10.178;2023-06-05T08:58:12;99993.47;;;20.83;68.03
80759;BME280;70150;45.582;10.178;2023-06-05T09:00:40;100004.06;;;21.20;65.43
80759;BME280;70150;45.582;10.178;2023-06-05T09:03:06;99995.69;;;21.31;66.38
80759;BME280;70150;45.582;10.178;2023-06-05T09:05:32;99998.09;;;21.45;66.57
80759;BME280;70150;45.582;10.178;2023-06-05T09:07:58;99994.41;;;21.55;67.85
80759;BME280;70150;45.582;10.178;2023-06-05T09:10:26;99998.66;;;21.56;69.11
80759;BME280;70150;45.582;10.178;2023-06-05T09:15:23;100004.38;;;21.62;67.00
80759;BME280;70150;45.582;10.178;2023-06-05T09:18:03;100003.03;;;21.70;68.61
80759;BME280;70150;45.582;10.178;2023-06-05T09:20:34;100005.97;;;21.79;67.84
80759;BME280;70150;45.582;10.178;2023-06-05T09:23:02;100000.69;;;21.88;68.86
80759;BME280;70150;45.582;10.178;2023-06-05T09:30:32;99997.19;;;21.52;65.69
80759;BME280;70150;45.582;10.178;2023-06-05T09:33:08;99999.75;;;21.78;65.05
80759;BME280;70150;45.582;10.178;2023-06-05T09:35:34;100000.91;;;21.61;65.79
80759;BME280;70150;45.582;10.178;2023-06-05T09:38:05;100003.66;;;21.22;66.67
80759;BME280;70150;45.582;10.178;2023-06-05T09:40:49;100004.78;;;21.60;68.34
80759;BME280;70150;45.582;10.178;2023-06-05T09:43:20;99997.28;;;21.28;68.37
80759;BME280;70150;45.582;10.178;2023-06-05T09:45:46;99987.06;;;21.52;65.42
80759;BME280;70150;45.582;10.178;2023-06-05T09:48:13;99995.41;;;21.81;65.62
80759;BME280;70150;45.582;10.178;2023-06-05T09:50:39;99998.56;;;21.79;63.44
80759;BME280;70150;45.582;10.178;2023-06-05T09:53:06;99995.91;;;21.76;63.52
80759;BME280;70150;45.582;10.178;2023-06-05T09:55:34;99992.56;;;21.84;68.07
80759;BME280;70150;45.582;10.178;2023-06-05T09:58:03;99985.00;;;22.08;67.88
80759;BME280;70150;45.582;10.178;2023-06-05T10:00:36;99978.69;;;22.11;67.82
80759;BME280;70150;45.582;10.178;2023-06-05T10:03:08;99989.19;;;22.12;68.26
80759;BME280;70150;45.582;10.178;2023-06-05T10:05:40;99988.88;;;22.26;66.74
80759;BME280;70150;45.582;10.178;2023-06-05T10:08:08;99984.22;;;22.55;65.71
80759;BME280;70150;45.582;10.178;2023-06-05T10:10:34;99989.09;;;22.64;66.54
80759;BME280;70150;45.582;10.178;2023-06-05T10:13:01;99988.53;;;22.85;64.91
80759;BME280;70150;45.582;10.178;2023-06-05T10:15:27;99982.41;;;22.93;65.45
80759;BME280;70150;45.582;10.178;2023-06-05T10:17:53;99981.94;;;23.11;66.12
80759;BME280;70150;45.582;10.178;2023-06-05T10:20:21;99987.28;;;23.02;68.24
80759;BME280;70150;45.582;10.178;2023-06-05T10:22:49;99979.22;;;23.24;65.49
80759;BME280;70150;45.582;10.178;2023-06-05T10:25:17;99974.16;;;23.09;64.74
80759;BME280;70150;45.582;10.178;2023-06-05T10:40:10;99976.88;;;23.63;62.66
80759;BME280;70150;45.582;10.178;2023-06-05T10:42:37;99969.69;;;23.57;62.90
80759;BME280;70150;45.582;10.178;2023-06-05T10:45:03;99969.34;;;23.80;63.42
80759;BME280;70150;45.582;10.178;2023-06-05T10:52:35;99968.03;;;23.18;62.93
80759;BME280;70150;45.582;10.178;2023-06-05T10:55:01;99952.28;;;23.22;61.45
80759;BME280;70150;45.582;10.178;2023-06-05T11:00:17;99968.91;;;23.69;62.48
80759;BME280;70150;45.582;10.178;2023-06-05T11:02:46;99956.94;;;23.88;60.82
80759;BME280;70150;45.582;10.178;2023-06-05T11:05:12;99963.00;;;24.08;60.27
80759;BME280;70150;45.582;10.178;2023-06-05T11:07:39;99959.63;;;24.72;61.17
80759;BME280;70150;45.582;10.178;2023-06-05T11:17:41;99938.41;;;23.92;60.12
80759;BME280;70150;45.582;10.178;2023-06-05T11:20:08;99934.16;;;23.53;61.60
80759;BME280;70150;45.582;10.178;2023-06-05T11:27:49;99928.25;;;23.55;60.69
80759;BME280;70150;45.582;10.178;2023-06-05T11:30:16;99935.69;;;23.79;59.74
80759;BME280;70150;45.582;10.178;2023-06-05T11:32:43;99925.56;;;24.26;58.06
80759;BME280;70150;45.582;10.178;2023-06-05T11:35:10;99926.69;;;23.79;57.25
80759;BME280;70150;45.582;10.178;2023-06-05T11:37:38;99933.94;;;23.48;58.88
80759;BME280;70150;45.582;10.178;2023-06-05T11:40:07;99923.09;;;23.57;58.50
80759;BME280;70150;45.582;10.178;2023-06-05T11:42:36;99919.38;;;23.51;57.56
80759;BME280;70150;45.582;10.178;2023-06-05T11:45:02;99915.09;;;23.25;58.15
80759;BME280;70150;45.582;10.178;2023-06-05T11:47:28;99919.53;;;23.19;58.32
80759;BME280;70150;45.582;10.178;2023-06-05T11:50:08;99907.72;;;23.22;58.25
80759;BME280;70150;45.582;10.178;2023-06-05T11:52:35;99914.38;;;23.21;58.76
80759;BME280;70150;45.582;10.178;2023-06-05T12:00:05;99911.66;;;22.67;59.25
80759;BME280;70150;45.582;10.178;2023-06-05T12:02:32;99912.47;;;22.92;60.91
80759;BME280;70150;45.582;10.178;2023-06-05T12:04:59;99916.59;;;22.84;62.21
80759;BME280;70150;45.582;10.178;2023-06-05T12:07:28;99910.63;;;22.45;61.70
80759;BME280;70150;45.582;10.178;2023-06-05T12:09:55;99912.47;;;22.35;63.11
80759;BME280;70150;45.582;10.178;2023-06-05T12:12:20;99916.38;;;22.34;62.72
80759;BME280;70150;45.582;10.178;2023-06-05T12:14:46;99913.34;;;22.32;62.47
80759;BME280;70150;45.582;10.178;2023-06-05T12:17:12;99916.78;;;22.20;61.62
80759;BME280;70150;45.582;10.178;2023-06-05T12:19:38;99909.75;;;22.19;64.14
80759;BME280;70150;45.582;10.178;2023-06-05T12:22:06;99915.25;;;22.48;64.32
80759;BME280;70150;45.582;10.178;2023-06-05T12:24:32;99901.47;;;22.23;62.58
80759;BME280;70150;45.582;10.178;2023-06-05T12:27:00;99908.66;;;22.17;62.20
80759;BME280;70150;45.582;10.178;2023-06-05T12:29:28;99900.47;;;22.17;62.43
80759;BME280;70150;45.582;10.178;2023-06-05T12:31:57;99905.53;;;22.02;62.77
80759;BME280;70150;45.582;10.178;2023-06-05T12:36:55;99900.78;;;21.71;63.19
80759;BME280;70150;45.582;10.178;2023-06-05T12:39:20;99900.28;;;21.92;62.82
80759;BME280;70150;45.582;10.178;2023-06-05T12:41:47;99892.69;;;22.15;63.23
80759;BME280;70150;45.582;10.178;2023-06-05T12:44:12;99890.16;;;22.08;63.16
80759;BME280;70150;45.582;10.178;2023-06-05T12:46:38;99893.38;;;21.87;62.93
80759;BME280;70150;45.582;10.178;2023-06-05T12:49:04;99886.72;;;22.20;63.27
80759;BME280;70150;45.582;10.178;2023-06-05T12:51:30;99885.44;;;22.53;63.06
80759;BME280;70150;45.582;10.178;2023-06-05T12:53:56;99883.94;;;22.36;62.87
80759;BME280;70150;45.582;10.178;2023-06-05T12:56:23;99876.22;;;22.47;62.00
80759;BME280;70150;45.582;10.178;2023-06-05T12:58:53;99882.06;;;22.62;61.72
80759;BME280;70150;45.582;10.178;2023-06-05T13:01:20;99879.00;;;22.60;61.78
80759;BME280;70150;45.582;10.178;2023-06-05T13:03:46;99883.81;;;22.97;62.23
80759;BME280;70150;45.582;10.178;2023-06-05T13:06:12;99874.38;;;22.85;60.92
80759;BME280;70150;45.582;10.178;2023-06-05T13:08:40;99879.66;;;23.17;61.87
80759;BME280;70150;45.582;10.178;2023-06-05T13:11:08;99875.56;;;22.84;61.33
80759;BME280;70150;45.582;10.178;2023-06-05T13:13:36;99875.16;;;22.98;62.98
80759;BME280;70150;45.582;10.178;2023-06-05T13:16:01;99881.84;;;23.10;60.43
80759;BME280;70150;45.582;10.178;2023-06-05T13:18:27;99881.91;;;22.81;61.84
80759;BME280;70150;45.582;10.178;2023-06-05T13:20:54;99878.13;;;22.91;60.96
80759;BME280;70150;45.582;10.178;2023-06-05T13:23:21;99878.34;;;22.97;60.77
80759;BME280;70150;45.582;10.178;2023-06-05T13:25:47;99873.03;;;22.77;61.91
80759;BME280;70150;45.582;10.178;2023-06-05T13:28:13;99879.47;;;22.71;61.14
80759;BME280;70150;45.582;10.178;2023-06-05T13:30:38;99866.72;;;22.80;60.57
80759;BME280;70150;45.582;10.178;2023-06-05T13:33:04;99872.53;;;22.95;60.91
80759;BME280;70150;45.582;10.178;2023-06-05T13:35:30;99871.22;;;22.87;62.44
80759;BME280;70150;45.582;10.178;2023-06-05T13:37:55;99875.03;;;22.89;61.33
80759;BME280;70150;45.582;10.178;2023-06-05T13:40:21;99875.38;;;22.91;60.29
80759;BME280;70150;45.582;10.178;2023-06-05T13:42:46;99868.09;;;23.26;60.79